Time;durP1;ratioP1;P1;durP2;ratioP2;P2;SDS_P1;SDS_P2;PMS_P1;PMS_P2;Temp;Humidity;BMP_temperature;BMP_pressure;BME280_temperature;BME280_humidity;BME280_pressure;Samples;Min_cycle;Max_cycle;Signal;HPM_P1;HPM_P2
2022/08/14 00:00:40;;;;;;;7.57;6.60;;;;;;;21.39;100.00;166165.94;4991449;28;20050;-57
2022/08/14 00:03:06;;;;;;;9.40;6.72;;;;;;;21.39;100.00;166167.25;4993042;28;20019;-57
2022/08/14 00:05:31;;;;;;;7.35;6.22;;;;;;;21.37;100.00;166161.81;4991166;28;20093;-57
2022/08/14 00:07:56;;;;;;;7.60;6.28;;;;;;;21.37;100.00;166161.81;4992951;28;20125;-57
2022/08/14 00:10:22;;;;;;;9.23;6.80;;;;;;;21.33;100.00;166149.63;4991005;28;20073;-57
2022/08/14 00:12:51;;;;;;;10.77;6.20;;;;;;;21.29;100.00;166138.75;4992742;28;20030;-57
2022/08/14 00:15:22;;;;;;;6.40;5.78;;;;;;;21.25;100.00;166129.25;4991526;28;20509;-57
2022/08/14 00:17:49;;;;;;;8.25;6.45;;;;;;;21.21;100.00;166118.41;4992814;28;20061;-57
2022/08/14 00:20:21;;;;;;;7.65;6.85;;;;;;;21.14;100.00;166100.72;4990993;28;20520;-57
2022/08/14 00:22:46;;;;;;;9.18;8.10;;;;;;;21.07;100.00;166081.72;4992459;28;20052;-57
2022/08/14 00:25:12;;;;;;;9.45;6.82;;;;;;;21.05;100.00;166076.28;4991400;28;20039;-57
2022/08/14 00:27:37;;;;;;;7.72;6.60;;;;;;;21.01;100.00;166065.44;4992298;28;20031;-58
2022/08/14 00:30:07;;;;;;;9.00;6.95;;;;;;;20.98;100.00;166057.25;4990985;28;20390;-57
2022/08/14 00:32:33;;;;;;;10.23;6.68;;;;;;;20.92;100.00;166043.69;4992499;28;20018;-57
2022/08/14 00:35:00;;;;;;;9.80;8.00;;;;;;;20.84;100.00;166021.97;4990835;28;20514;-57
2022/08/14 00:37:29;;;;;;;10.60;6.30;;;;;;;20.83;100.00;166019.25;4992225;28;20034;-57
2022/08/14 00:39:55;;;;;;;8.57;6.68;;;;;;;20.79;100.00;166008.41;4991016;28;20038;-57
2022/08/14 00:42:21;;;;;;;6.43;5.82;;;;;;;20.75;100.00;165997.53;4991837;28;20803;-57
2022/08/14 00:44:47;;;;;;;20.42;7.28;;;;;;;20.76;100.00;166000.25;4990891;28;20042;-57
2022/08/14 00:47:14;;;;;;;11.52;7.05;;;;;;;20.75;100.00;165998.91;4992391;28;20113;-58
2022/08/14 00:49:40;;;;;;;9.55;6.50;;;;;;;20.73;100.00;165993.47;4989707;28;20038;-57
2022/08/14 00:52:05;;;;;;;8.63;7.18;;;;;;;20.72;100.00;165990.72;4992445;28;20046;-57
2022/08/14 00:54:32;;;;;;;49.00;8.85;;;;;;;20.69;100.00;165981.19;4990674;28;20078;-57
2022/08/14 00:56:57;;;;;;;10.50;6.57;;;;;;;20.66;100.00;165973.06;4991874;28;20052;-57
2022/08/14 00:59:27;;;;;;;10.48;7.35;;;;;;;20.64;100.00;165967.63;4989957;28;20038;-57
2022/08/14 01:01:58;;;;;;;8.60;7.47;;;;;;;20.61;100.00;165962.19;4992304;28;20074;-56
2022/08/14 01:04:24;;;;;;;13.05;8.40;;;;;;;20.59;100.00;165956.72;4988635;28;20442;-57
2022/08/14 01:06:50;;;;;;;8.93;5.80;;;;;;;20.54;100.00;165943.19;4991854;28;20022;-57
2022/08/14 01:09:21;;;;;;;8.55;7.75;;;;;;;20.51;100.00;165935.06;4990773;28;20068;-57
2022/08/14 01:11:50;;;;;;;10.85;6.75;;;;;;;20.48;100.00;165926.91;4991460;28;20417;-58
2022/08/14 01:14:17;;;;;;;15.32;6.85;;;;;;;20.45;100.00;165918.72;4990429;28;20057;-57
2022/08/14 01:16:42;;;;;;;9.13;7.78;;;;;;;20.41;100.00;165909.22;4991712;28;20026;-58
2022/08/14 01:21:52;;;;;;;9.82;7.55;;;;;;;20.34;100.00;165888.88;4992119;28;20033;-57
2022/08/14 01:24:20;;;;;;;8.27;6.82;;;;;;;20.31;100.00;165882.09;4990429;28;20050;-58
2022/08/14 01:26:45;;;;;;;10.73;9.63;;;;;;;20.26;100.00;165869.88;4991456;28;20382;-57
2022/08/14 01:29:12;;;;;;;10.30;8.98;;;;;;;20.23;100.00;165861.72;4989938;28;20081;-57
2022/08/14 01:31:51;;;;;;;8.20;6.78;;;;;;;20.19;100.00;165850.88;4991618;28;20037;-57
2022/08/14 01:34:19;;;;;;;9.10;6.43;;;;;;;20.16;100.00;165842.72;4989908;28;20453;-57
2022/08/14 01:36:44;;;;;;;21.92;9.48;;;;;;;20.13;100.00;165834.59;4991550;28;20062;-57
2022/08/14 01:39:12;;;;;;;9.60;7.40;;;;;;;20.09;100.00;165823.72;4990532;28;20101;-57
2022/08/14 01:41:39;;;;;;;36.75;9.80;;;;;;;20.06;100.00;165815.59;4991012;28;20088;-57
2022/08/14 01:44:11;;;;;;;7.15;6.45;;;;;;;20.04;100.00;165810.16;4990363;28;20120;-57
2022/08/14 01:46:39;;;;;;;13.75;8.43;;;;;;;20.01;100.00;165802.00;4991714;28;20029;-57
2022/08/14 01:49:06;;;;;;;7.78;6.97;;;;;;;20.01;100.00;165802.00;4989658;28;20031;-57
2022/08/14 01:51:33;;;;;;;13.13;8.43;;;;;;;20.01;100.00;165802.00;4991165;28;20025;-57
2022/08/14 01:54:01;;;;;;;11.18;7.15;;;;;;;19.96;100.00;165791.16;4970946;28;20043;-57
2022/08/14 01:56:38;;;;;;;7.35;6.60;;;;;;;19.95;100.00;165788.44;4971510;28;20149;-57
2022/08/14 01:59:27;;;;;;;11.48;8.20;;;;;;;19.93;100.00;165783.00;4970679;28;20047;-57
2022/08/14 02:01:55;;;;;;;8.68;7.88;;;;;;;19.91;100.00;165776.22;4988936;28;20490;-57
2022/08/14 02:04:22;;;;;;;11.73;7.78;;;;;;;19.89;100.00;165772.16;4989632;28;20129;-57
2022/08/14 02:06:51;;;;;;;8.50;7.57;;;;;;;19.84;100.00;165757.19;4991527;28;20545;-57
2022/08/14 02:09:20;;;;;;;7.72;6.93;;;;;;;19.76;100.00;165736.84;4989869;28;20057;-57
2022/08/14 02:11:45;;;;;;;;;;;;;;;19.71;100.00;165723.25;4993337;28;20105;-57
2022/08/14 02:14:12;;;;;;;8.73;7.93;;;;;;;19.65;100.00;165709.69;4993904;28;20060;-57
2022/08/14 02:16:51;;;;;;;14.07;8.90;;;;;;;19.58;100.00;165690.69;4994767;28;20022;-57
2022/08/14 02:19:19;;;;;;;9.75;8.70;;;;;;;19.51;100.00;165671.69;4993396;28;20104;-57
2022/08/14 02:21:46;;;;;;;9.13;8.02;;;;;;;19.44;100.00;165652.72;4994940;28;20061;-57
2022/08/14 02:24:13;;;;;;;14.38;9.07;;;;;;;19.34;100.00;165628.28;4993449;28;20076;-56
2022/08/14 02:26:41;;;;;;;10.55;9.50;;;;;;;19.25;100.00;165602.50;4994213;28;20049;-57
2022/08/14 02:29:09;;;;;;;11.37;8.30;;;;;;;19.20;100.00;165588.94;4993224;28;20046;-57
2022/08/14 02:31:39;;;;;;;10.98;8.55;;;;;;;19.16;100.00;165579.47;4994594;28;20473;-58
2022/08/14 02:34:10;;;;;;;12.18;9.30;;;;;;;19.13;100.00;165571.31;4993015;28;20042;-57
2022/08/14 02:36:37;;;;;;;9.70;8.75;;;;;;;19.10;100.00;165563.19;4994695;28;20018;-57
2022/08/14 02:39:05;;;;;;;19.17;9.60;;;;;;;19.07;100.00;165555.03;4993562;28;20133;-57
2022/08/14 02:41:31;;;;;;;12.05;10.15;;;;;;;19.03;100.00;165546.88;4993957;28;20080;-57
2022/08/14 02:43:57;;;;;;;10.05;9.02;;;;;;;19.02;100.00;165544.16;4993008;28;20033;-58
2022/08/14 02:46:22;;;;;;;10.23;8.18;;;;;;;19.03;100.00;165545.53;4994292;28;20030;-57
2022/08/14 02:48:47;;;;;;;10.20;9.20;;;;;;;19.03;100.00;165546.88;4994059;28;20053;-58
2022/08/14 02:51:13;;;;;;;12.68;9.80;;;;;;;18.97;100.00;165530.59;4992992;28;20057;-57
2022/08/14 02:53:43;;;;;;;11.63;10.43;;;;;;;19.03;100.00;165546.88;4994188;28;20048;-57
2022/08/14 02:56:09;;;;;;;10.90;9.77;;;;;;;19.02;100.00;165544.16;4991396;28;20434;-57
2022/08/14 02:58:39;;;;;;;11.00;8.95;;;;;;;19.00;100.00;165538.75;4994560;28;20022;-57
2022/08/14 03:01:07;;;;;;;9.68;8.77;;;;;;;19.01;100.00;165541.47;4992658;28;20050;-57
2022/08/14 03:03:34;;;;;;;13.98;10.32;;;;;;;18.99;100.00;165536.03;4993602;28;20042;-58
2022/08/14 03:05:59;;;;;;;9.98;8.93;;;;;;;18.97;100.00;165530.59;4992626;28;20097;-58
2022/08/14 03:08:30;;;;;;;10.88;8.55;;;;;;;18.97;100.00;165530.59;4994113;28;20018;-57
2022/08/14 03:10:56;;;;;;;11.48;9.88;;;;;;;18.95;100.00;165523.81;4992414;28;20414;-57
2022/08/14 03:13:21;;;;;;;9.90;8.82;;;;;;;18.92;100.00;165517.06;4994186;28;20023;-57
2022/08/14 03:15:52;;;;;;;11.32;10.13;;;;;;;18.88;100.00;165506.13;4992386;28;20065;-57
2022/08/14 03:18:20;;;;;;;11.50;10.35;;;;;;;18.84;100.00;165495.28;4993899;28;20068;-57
2022/08/14 03:20:46;;;;;;;11.93;10.45;;;;;;;18.74;100.00;165468.16;4992553;28;20062;-58
2022/08/14 03:23:12;;;;;;;10.55;9.40;;;;;;;18.75;100.00;165470.88;4993559;28;20030;-57
2022/08/14 03:25:37;;;;;;;11.32;10.23;;;;;;;18.72;100.00;165464.09;4991494;28;20131;-57
2022/08/14 03:28:05;;;;;;;11.50;10.38;;;;;;;18.70;100.00;165460.03;4993539;28;20046;-57
2022/08/14 03:30:31;;;;;;;;;;;;;;;18.67;100.00;165451.88;4992406;28;20111;-57
2022/08/14 03:32:57;;;;;;;12.53;11.43;;;;;;;18.64;100.00;165443.78;4993698;28;20004;-57
2022/08/14 03:35:23;;;;;;;12.95;11.45;;;;;;;18.61;100.00;165434.28;4991935;28;20621;-57
2022/08/14 03:37:51;;;;;;;12.48;10.32;;;;;;;18.58;100.00;165427.47;4993864;28;20045;-57
2022/08/14 03:40:16;;;;;;;;;;;;;;;18.57;100.00;165424.78;4992364;28;20494;-58
2022/08/14 03:42:42;;;;;;;16.85;12.40;;;;;;;18.55;100.00;165420.69;4993497;28;19928;-58
2022/08/14 03:45:08;;;;;;;12.50;11.32;;;;;;;18.52;100.00;165411.19;4992123;28;20620;-57
2022/08/14 03:47:35;;;;;;;12.52;11.25;;;;;;;18.49;100.00;165403.09;4992774;28;20057;-57
2022/08/14 03:50:01;;;;;;;12.38;11.18;;;;;;;18.46;100.00;165394.94;4991984;28;20046;-57
2022/08/14 03:52:26;;;;;;;11.70;10.55;;;;;;;18.44;100.00;165389.50;4993411;28;20478;-57
2022/08/14 03:54:51;;;;;;;12.65;11.48;;;;;;;18.41;100.00;165381.38;4991673;28;20525;-57
2022/08/14 03:57:17;;;;;;;12.45;11.05;;;;;;;18.38;100.00;165375.94;4993353;28;20026;-57
2022/08/14 03:59:42;;;;;;;13.48;12.07;;;;;;;18.38;100.00;165375.94;4991297;28;20038;-57
2022/08/14 04:02:07;;;;;;;14.70;13.15;;;;;;;18.34;100.00;165365.13;4992851;28;20081;-57
2022/08/14 04:04:33;;;;;;;13.55;12.27;;;;;;;18.34;100.00;165365.13;4991301;28;20042;-57
2022/08/14 04:06:59;;;;;;;17.88;13.00;;;;;;;18.32;100.00;165359.69;4993274;28;20034;-58
2022/08/14 04:09:25;;;;;;;13.02;11.10;;;;;;;18.31;100.00;165356.97;4990987;28;20042;-57
2022/08/14 04:11:50;;;;;;;15.98;11.65;;;;;;;18.27;100.00;165346.16;4992891;28;20485;-57
2022/08/14 04:14:16;;;;;;;12.52;11.32;;;;;;;18.24;100.00;165339.31;4991781;28;20034;-57
2022/08/14 04:16:46;;;;;;;14.48;12.95;;;;;;;18.23;100.00;165336.66;4992469;28;20393;-57
2022/08/14 04:19:14;;;;;;;13.15;10.98;;;;;;;18.23;100.00;165335.28;4991627;28;20022;-57
2022/08/14 04:21:40;;;;;;;12.60;11.02;;;;;;;18.23;100.00;165335.28;4992853;28;20033;-57
2022/08/14 04:24:05;;;;;;;13.30;11.50;;;;;;;18.21;100.00;165329.84;4990881;28;20389;-57
2022/08/14 04:26:30;;;;;;;12.32;11.10;;;;;;;18.21;100.00;165331.22;4992680;28;20027;-58
2022/08/14 04:28:56;;;;;;;13.38;11.85;;;;;;;18.21;100.00;165329.84;4990640;28;20410;-57
2022/08/14 04:31:23;;;;;;;14.40;12.77;;;;;;;18.20;100.00;165327.16;4991771;28;20029;-57
2022/08/14 04:33:51;;;;;;;20.13;12.80;;;;;;;18.22;100.00;165332.56;4991497;28;20105;-57
2022/08/14 04:36:17;;;;;;;12.50;11.23;;;;;;;18.21;100.00;165329.84;4988365;28;20041;-57
2022/08/14 04:44:17;;;;;;;14.75;13.02;;;;;;;18.20;100.00;165327.16;4986834;28;20572;-57
2022/08/14 04:49:27;;;;;;;17.55;12.25;;;;;;;18.24;100.00;165338.00;4990152;28;20053;-57
2022/08/14 04:51:53;;;;;;;11.95;10.80;;;;;;;18.28;100.00;165348.81;4992055;28;20027;-57
2022/08/14 04:54:18;;;;;;;15.27;11.45;;;;;;;18.30;100.00;165354.25;4989873;28;20034;-57
2022/08/14 04:56:43;;;;;;;18.00;14.18;;;;;;;18.32;100.00;165358.31;4991552;28;20049;-57
2022/08/14 04:59:09;;;;;;;13.40;12.10;;;;;;;18.33;100.00;165362.41;4990145;28;20018;-57
2022/08/14 05:01:34;;;;;;;14.48;11.88;;;;;;;18.38;100.00;165375.94;4991047;28;20014;-58
2022/08/14 05:04:00;;;;;;;14.25;12.57;;;;;;;18.41;100.00;165381.38;4990031;28;20041;-57
2022/08/14 05:06:25;;;;;;;15.25;13.82;;;;;;;18.43;100.00;165386.81;4991689;28;20022;-57
2022/08/14 05:08:50;;;;;;;13.13;11.20;;;;;;;18.48;100.00;165400.38;4991671;28;20030;-57
2022/08/14 05:11:18;;;;;;;14.40;11.50;;;;;;;18.54;100.00;165416.63;4990389;28;20042;-57
2022/08/14 05:13:43;;;;;;;15.18;11.88;;;;;;;18.58;100.00;165427.47;4992109;28;20034;-57
2022/08/14 05:16:12;;;;;;;18.58;12.27;;;;;;;18.64;100.00;165442.41;4990021;28;20038;-57
2022/08/14 05:18:37;;;;;;;;;;;;;;;18.69;100.00;165457.31;4992242;28;20109;-57
2022/08/14 05:21:04;;;;;;;14.02;12.52;;;;;;;18.74;100.00;165469.53;4990349;28;20044;-57
2022/08/14 05:23:32;;;;;;;13.70;12.38;;;;;;;18.80;100.00;165484.47;4990986;28;20034;-57
2022/08/14 05:26:04;;;;;;;18.75;12.82;;;;;;;18.85;100.00;165498.00;4990499;28;20108;-57
2022/08/14 05:28:32;;;;;;;16.67;12.07;;;;;;;18.92;100.00;165517.06;4991434;28;20052;-57
2022/08/14 05:31:00;;;;;;;13.68;12.43;;;;;;;18.96;100.00;165526.56;4989884;28;20069;-57
2022/08/14 05:33:27;;;;;;;13.65;12.35;;;;;;;19.01;100.00;165541.47;4991926;28;20045;-57
2022/08/14 05:36:01;;;;;;;12.98;11.43;;;;;;;19.08;100.00;165557.75;4989838;28;20457;-57
2022/08/14 05:38:32;;;;;;;12.35;11.30;;;;;;;19.15;100.00;165576.75;4991385;28;20557;-57
2022/08/14 05:41:01;;;;;;;13.60;10.98;;;;;;;19.26;100.00;165606.56;4989953;28;20502;-57
2022/08/14 05:43:27;;;;;;;13.95;12.55;;;;;;;19.34;100.00;165626.94;4991418;28;20054;-57
2022/08/14 05:45:52;;;;;;;14.63;12.18;;;;;;;19.43;100.00;165649.97;4991926;28;20042;-57
2022/08/14 05:48:18;;;;;;;13.75;11.88;;;;;;;19.48;100.00;165663.53;4995512;28;20030;-58
2022/08/14 05:50:43;;;;;;;13.25;11.80;;;;;;;19.60;100.00;165696.13;4993700;28;20093;-57
2022/08/14 05:53:08;;;;;;;15.45;11.88;;;;;;;19.71;100.00;165723.25;4995554;28;20034;-57
2022/08/14 05:55:34;;;;;;;19.42;12.77;;;;;;;19.80;100.00;165747.69;4993936;28;20108;-57
2022/08/14 05:58:03;;;;;;;12.25;11.05;;;;;;;19.89;100.00;165772.16;4995172;28;20367;-57
2022/08/14 06:00:35;;;;;;;13.05;11.77;;;;;;;19.98;100.00;165795.22;4993394;28;20038;-57
2022/08/14 06:03:02;;;;;;;12.88;11.65;;;;;;;20.06;100.00;165816.94;4994258;28;20394;-57
2022/08/14 06:05:28;;;;;;;14.80;13.30;;;;;;;20.18;100.00;165846.84;4993557;28;20034;-57
2022/08/14 06:07:53;;;;;;;15.05;12.15;;;;;;;20.28;100.00;165873.94;4994254;28;20033;-58
2022/08/14 06:10:18;;;;;;;12.32;11.00;;;;;;;20.36;100.00;165894.34;4993297;28;20486;-57
2022/08/14 06:12:44;;;;;;;11.13;10.13;;;;;;;20.49;100.00;165929.63;4994401;28;20026;-58
2022/08/14 06:15:10;;;;;;;12.00;10.90;;;;;;;20.56;100.00;165948.63;4992377;28;20105;-57
2022/08/14 06:17:46;;;;;;;14.60;11.90;;;;;;;20.69;100.00;165981.19;4994426;28;20029;-57
2022/08/14 06:20:13;;;;;;;13.20;10.35;;;;;;;20.79;100.00;166008.41;4992985;28;20042;-58
2022/08/14 06:22:40;;;;;;;14.48;11.40;;;;;;;20.87;100.00;166028.75;4993913;28;20069;-57
2022/08/14 06:25:07;;;;;;;12.80;9.25;;;;;;;21.03;100.00;166072.22;4993083;28;20085;-58
2022/08/14 06:27:37;;;;;;;10.32;9.43;;;;;;;21.15;100.00;166103.44;4994326;28;20401;-57
2022/08/14 06:30:05;;;;;;;10.45;9.40;;;;;;;21.31;100.00;166144.19;4991995;28;20137;-57
2022/08/14 06:32:31;;;;;;;9.98;8.77;;;;;;;21.42;100.00;166174.03;4994001;28;20074;-57
2022/08/14 06:34:56;;;;;;;11.48;9.43;;;;;;;21.55;100.00;166209.41;4993363;28;20494;-57
2022/08/14 06:37:22;;;;;;;12.63;8.95;;;;;;;21.69;100.00;166244.75;4994132;28;20516;-57
2022/08/14 06:39:47;;;;;;;11.57;10.43;;;;;;;21.80;100.00;166274.63;4992982;28;20049;-57
2022/08/14 06:42:13;;;;;;;10.25;7.93;;;;;;;21.97;100.00;166318.09;4993353;28;20038;-57
2022/08/14 06:44:38;;;;;;;9.70;8.80;;;;;;;22.11;100.00;166356.13;4990930;28;20517;-57
2022/08/14 06:47:04;;;;;;;15.02;8.73;;;;;;;22.25;100.00;166391.44;4992642;28;20038;-57
2022/08/14 06:49:29;;;;;;;9.70;8.73;;;;;;;22.25;100.00;166391.44;4992111;28;20050;-57
2022/08/14 06:51:55;;;;;;;17.27;9.75;;;;;;;22.50;100.00;166459.47;4993202;28;20053;-57
2022/08/14 06:54:20;;;;;;;9.38;7.70;;;;;;;22.66;100.00;166500.25;4992252;28;20046;-57
2022/08/14 06:56:45;;;;;;;10.00;9.10;;;;;;;22.81;100.00;166541.00;4993462;28;20093;-57
2022/08/14 06:59:14;;;;;;;11.60;9.38;;;;;;;22.96;100.00;166579.06;4992524;28;20026;-57
2022/08/14 07:07:07;;;;;;;11.10;10.00;;;;;;;-146.58;100.00;69501.63;4993907;28;20584;-57
2022/08/14 07:09:33;;;;;;;10.50;9.27;;;;;;;-146.58;100.00;69501.63;4992213;28;20050;-57
2022/08/14 07:11:58;;;;;;;14.48;7.90;;;;;;;26.32;100.00;167463.50;4994233;28;20026;-57
2022/08/14 07:14:24;;;;;;;9.63;8.73;;;;;;;26.86;100.00;167606.50;4992177;28;20528;-57
2022/08/14 07:16:49;;;;;;;10.95;7.72;;;;;;;27.02;100.00;167650.09;4994253;28;20030;-57
2022/08/14 07:19:16;;;;;;;12.82;8.45;;;;;;;27.14;100.00;167681.41;4992390;28;20046;-57
2022/08/14 07:21:41;;;;;;;10.07;8.27;;;;;;;27.15;100.00;167684.09;4993349;28;20026;-57
2022/08/14 07:24:07;;;;;;;7.28;6.68;;;;;;;26.83;100.00;167599.72;4992382;28;20081;-57
2022/08/14 07:26:32;;;;;;;11.35;7.93;;;;;;;26.43;100.00;167493.44;4992852;28;20085;-57
2022/08/14 07:28:58;;;;;;;8.48;7.53;;;;;;;26.18;100.00;167428.06;4990590;28;20051;-56
2022/08/14 07:31:23;;;;;;;17.27;9.18;;;;;;;25.77;100.00;167319.16;4992852;28;20089;-57
2022/08/14 07:33:48;;;;;;;11.13;7.93;;;;;;;25.69;100.00;167297.38;4992713;28;20504;-57
2022/08/14 07:36:15;;;;;;;8.43;7.63;;;;;;;25.64;100.00;167286.50;4991805;28;20046;-57
2022/08/14 07:38:42;;;;;;;9.82;8.45;;;;;;;25.64;100.00;167286.50;4992806;28;20026;-57
2022/08/14 07:41:10;;;;;;;11.00;8.00;;;;;;;25.69;100.00;167298.72;4992043;28;20093;-57
2022/08/14 07:43:36;;;;;;;8.50;7.50;;;;;;;25.77;100.00;167320.50;4993346;28;20026;-57
2022/08/14 07:46:03;;;;;;;8.70;7.78;;;;;;;25.91;100.00;167355.91;4991666;28;20050;-58
2022/08/14 07:48:28;;;;;;;12.30;9.40;;;;;;;26.05;100.00;167392.63;4993064;28;20038;-57
2022/08/14 07:50:54;;;;;;;19.60;8.15;;;;;;;26.03;100.00;167387.19;4991606;28;20054;-58
2022/08/14 07:53:20;;;;;;;10.73;7.90;;;;;;;26.03;100.00;145687.53;4992767;28;20034;-58
2022/08/14 07:55:46;;;;;;;11.82;8.82;;;;;;;-146.58;100.00;69501.63;4990877;28;20061;-57
2022/08/14 07:58:12;;;;;;;8.50;7.70;;;;;;;-146.58;100.00;69501.63;4992191;28;20464;-56
2022/08/14 08:00:37;;;;;;;8.77;7.43;;;;;;;26.31;100.00;167460.78;4991191;28;20042;-57
2022/08/14 08:03:08;;;;;;;12.52;8.15;;;;;;;-146.58;100.00;69501.63;4992929;28;20061;-57
2022/08/14 08:05:35;;;;;;;8.75;7.80;;;;;;;-146.58;100.00;69501.63;4990867;28;20041;-57
2022/08/14 08:08:02;;;;;;;8.15;7.35;;;;;;;-146.58;100.00;69501.63;4992114;28;20035;-57
2022/08/14 08:10:30;;;;;;;15.53;9.10;;;;;;;-146.58;100.00;69501.63;4987879;28;20034;-58
2022/08/14 08:12:57;;;;;;;8.68;7.88;;;;;;;-146.58;100.00;69501.63;4992834;28;20446;-57
2022/08/14 08:15:24;;;;;;;9.57;6.85;;;;;;;-146.58;100.00;69501.63;4990758;28;20087;-57
2022/08/14 08:17:50;;;;;;;8.80;8.10;;;;;;;-146.58;100.00;69501.63;4992618;28;20470;-57
2022/08/14 08:20:18;;;;;;;11.93;7.15;;;;;;;26.95;100.00;167631.03;4989927;28;20038;-57
2022/08/14 08:22:44;;;;;;;8.43;7.47;;;;;;;27.04;100.00;167654.16;4991284;28;20062;-57
2022/08/14 08:25:11;;;;;;;7.78;7.07;;;;;;;27.05;100.00;167656.91;4990188;28;20201;-57
2022/08/14 08:27:37;;;;;;;7.90;7.20;;;;;;;27.24;100.00;167708.63;4991302;28;20105;-57
2022/08/14 08:30:08;;;;;;;8.27;6.97;;;;;;;27.49;100.00;167774.06;4988962;28;20050;-57
2022/08/14 08:32:41;;;;;;;7.25;6.65;;;;;;;27.78;100.00;167850.34;4991115;28;20086;-57
2022/08/14 08:35:16;;;;;;;11.32;7.80;;;;;;;27.94;100.00;167891.22;4989868;28;20050;-57
2022/08/14 08:37:41;;;;;;;10.65;7.75;;;;;;;27.98;100.00;167902.09;4990172;28;20026;-57
2022/08/14 08:40:07;;;;;;;8.73;7.20;;;;;;;28.30;100.00;167986.63;4990535;28;20053;-58
2022/08/14 08:42:32;;;;;;;7.63;6.93;;;;;;;28.39;100.00;168011.16;4989002;28;20041;-57
2022/08/14 08:44:57;;;;;;;7.32;6.55;;;;;;;28.30;100.00;167986.63;4990027;28;20038;-57
2022/08/14 08:47:23;;;;;;;7.20;6.50;;;;;;;28.39;100.00;168009.78;4991513;28;20033;-58
2022/08/14 08:49:48;;;;;;;8.25;6.63;;;;;;;28.59;100.00;168062.94;4990452;28;20042;-57
2022/08/14 08:52:14;;;;;;;18.10;9.32;;;;;;;28.41;100.00;168016.59;4991952;28;20022;-57
2022/08/14 08:54:39;;;;;;;8.15;7.40;;;;;;;28.39;100.00;168011.16;4990733;28;20030;-58
2022/08/14 08:57:11;;;;;;;10.20;6.90;;;;;;;27.78;100.00;167850.34;4990577;28;20386;-58
2022/08/14 08:59:37;;;;;;;7.75;7.07;;;;;;;27.94;100.00;167892.56;4988543;28;20043;-57
2022/08/14 09:02:07;;;;;;;7.57;6.88;;;;;;;28.05;100.00;167921.16;4990859;28;20030;-57
2022/08/14 09:04:34;;;;;;;7.47;6.88;;;;;;;28.13;100.00;167943.03;4989107;28;20456;-57
2022/08/14 09:07:00;;;;;;;8.88;7.25;;;;;;;28.11;100.00;167937.56;4990394;28;20501;-57
2022/08/14 09:09:27;;;;;;;8.45;7.57;;;;;;;28.18;100.00;167956.63;4988691;28;20046;-57
2022/08/14 09:11:54;;;;;;;11.20;6.85;;;;;;;28.53;100.00;168046.59;4989970;28;20130;-57
2022/08/14 09:14:21;;;;;;;8.15;7.13;;;;;;;28.74;100.00;168103.88;4988647;28;20038;-58
2022/08/14 09:16:48;;;;;;;8.95;7.25;;;;;;;29.04;100.00;168182.91;4991317;28;20030;-57
2022/08/14 09:19:14;;;;;;;9.43;5.90;;;;;;;29.53;100.00;168312.47;4990339;28;20513;-57
2022/08/14 09:21:40;;;;;;;7.15;6.55;;;;;;;29.43;100.00;168286.56;4990347;28;20026;-58
2022/08/14 09:24:07;;;;;;;8.02;6.55;;;;;;;29.11;100.00;168202.00;4990084;28;20037;-57
2022/08/14 09:26:33;;;;;;;6.65;6.05;;;;;;;29.66;100.00;168346.56;4991332;28;20014;-57
2022/08/14 09:28:58;;;;;;;8.35;7.20;;;;;;;29.56;100.00;168319.28;4988778;28;20541;-56
2022/08/14 09:31:26;;;;;;;8.43;6.38;;;;;;;29.63;100.00;168338.38;4990987;28;20050;-57
2022/08/14 09:34:07;;;;;;;5.82;5.32;;;;;;;29.88;100.00;168403.81;4991117;28;20034;-57
2022/08/14 09:37:00;;;;;;;9.32;5.85;;;;;;;30.02;100.00;168440.66;4989403;28;20046;-58
2022/08/14 09:39:58;;;;;;;12.23;7.50;;;;;;;30.09;100.00;168458.41;4988277;28;20034;-57
2022/08/14 09:42:37;;;;;;;8.32;7.35;;;;;;;30.17;100.00;168480.22;4988879;28;20116;-58
2022/08/14 09:45:22;;;;;;;9.40;6.90;;;;;;;30.31;100.00;168518.41;4988154;28;20041;-58
2022/08/14 09:47:53;;;;;;;11.25;7.43;;;;;;;30.56;100.00;168583.94;4991665;28;20037;-57
2022/08/14 09:50:23;;;;;;;7.40;6.80;;;;;;;30.72;100.00;168626.19;4989312;28;20054;-58
2022/08/14 09:52:56;;;;;;;8.02;7.28;;;;;;;30.91;100.00;168676.66;4991348;28;20385;-58
2022/08/14 09:55:23;;;;;;;8.82;6.13;;;;;;;31.10;100.00;168725.81;4989286;28;20093;-57
2022/08/14 09:57:50;;;;;;;7.85;5.40;;;;;;;31.06;100.00;168714.88;4990696;28;20037;-57
2022/08/14 10:00:18;;;;;;;6.80;6.20;;;;;;;31.14;100.00;168738.09;4989604;28;20050;-57
2022/08/14 10:03:01;;;;;;;7.93;6.03;;;;;;;30.89;100.00;168669.84;4988402;28;20025;-57
2022/08/14 10:05:32;;;;;;;8.27;6.35;;;;;;;30.25;100.00;168502.06;4986718;28;20049;-57
2022/08/14 10:07:58;;;;;;;6.32;5.72;;;;;;;29.88;100.00;168403.81;4991301;28;20077;-57
2022/08/14 10:10:37;;;;;;;17.10;6.60;;;;;;;29.70;100.00;168357.44;4989105;28;20517;-57
2022/08/14 10:13:19;;;;;;;7.88;5.53;;;;;;;30.22;100.00;168495.25;4990296;28;20034;-58
2022/08/14 10:15:45;;;;;;;7.78;5.50;;;;;;;30.71;100.00;168623.47;4989388;28;20038;-57
2022/08/14 10:18:13;;;;;;;7.68;6.35;;;;;;;30.85;100.00;168660.31;4990707;28;20030;-58
2022/08/14 10:20:41;;;;;;;;;;;;;;;31.05;100.00;168712.13;4989364;28;20100;-58
2022/08/14 10:23:15;;;;;;;9.98;5.78;;;;;;;31.27;100.00;168772.19;4990059;28;19910;-57
2022/08/14 10:25:43;;;;;;;6.13;4.97;;;;;;;30.95;100.00;168687.56;4988913;28;20046;-57
2022/08/14 10:28:09;;;;;;;7.18;5.93;;;;;;;31.27;100.00;168772.19;4990104;28;20038;-57
2022/08/14 10:30:35;;;;;;;5.65;5.25;;;;;;;31.27;100.00;168770.84;4987968;28;20107;-58
2022/08/14 10:33:01;;;;;;;5.80;5.30;;;;;;;31.47;100.00;168824.03;4992899;28;20133;-58
2022/08/14 10:35:38;;;;;;;7.45;5.60;;;;;;;31.74;100.00;168895.06;4990568;28;20121;-58
2022/08/14 10:38:04;;;;;;;;;;;;;;;31.68;100.00;168878.69;4994385;28;20054;-57
2022/08/14 10:40:31;;;;;;;4.60;4.20;;;;;;;31.89;100.00;168936.00;4991541;28;19949;-58
2022/08/14 10:42:56;;;;;;;6.53;5.68;;;;;;;32.18;100.00;169012.41;4993593;28;20577;-58
2022/08/14 10:45:30;;;;;;;5.88;5.38;;;;;;;32.42;98.29;169075.25;4991570;28;20050;-58
2022/08/14 10:47:56;;;;;;;6.30;4.65;;;;;;;32.63;91.92;169129.84;4992913;28;20034;-58
2022/08/14 10:50:33;;;;;;;10.35;5.30;;;;;;;32.64;91.94;169132.56;4989587;28;20050;-58
2022/08/14 10:53:04;;;;;;;8.07;5.57;;;;;;;32.52;91.99;169102.50;4992346;28;20065;-58
2022/08/14 10:55:38;;;;;;;10.13;5.10;;;;;;;32.57;93.75;169114.81;4990815;28;20066;-58
2022/08/14 10:58:12;;;;;;;7.85;4.90;;;;;;;32.38;93.23;169064.31;4994157;28;20022;-58
2022/08/14 11:00:39;;;;;;;5.55;4.88;;;;;;;32.23;91.91;169026.09;4990301;28;20040;-57
2022/08/14 11:03:08;;;;;;;;;;;;;;;32.40;90.19;169069.78;4991888;28;20046;-58
2022/08/14 11:05:41;;;;;;;6.57;4.78;;;;;;;32.32;92.12;169049.28;4990881;28;19944;-58
2022/08/14 11:08:07;;;;;;;5.13;4.72;;;;;;;32.38;92.33;169064.31;4989802;28;20038;-58
2022/08/14 11:10:45;;;;;;;9.50;4.93;;;;;;;32.65;91.12;169135.31;4989540;28;20038;-58
2022/08/14 11:13:17;;;;;;;5.53;5.03;;;;;;;32.58;88.35;169118.88;4991560;28;20109;-58
2022/08/14 11:15:45;;;;;;;6.32;5.28;;;;;;;32.70;87.20;169148.94;4991332;28;20053;-58
2022/08/14 11:18:11;;;;;;;;;;;;;;;32.70;87.20;169148.94;4994295;28;20023;-58
2022/08/14 11:20:37;;;;;;;8.40;4.53;;;;;;;32.65;83.32;169136.66;4991533;28;19917;-58
2022/08/14 11:23:06;;;;;;;7.30;4.40;;;;;;;32.68;81.46;169143.47;4992791;28;20529;-58
2022/08/14 11:25:31;;;;;;;5.70;4.38;;;;;;;32.53;81.45;169105.25;4991521;28;20080;-58
2022/08/14 11:27:58;;;;;;;5.25;4.63;;;;;;;32.58;81.61;169118.88;4987950;28;20026;-58
2022/08/14 11:30:26;;;;;;;4.27;3.73;;;;;;;32.77;80.68;169168.09;4990721;28;20049;-58